Time;durP1;ratioP1;P1;durP2;ratioP2;P2;SDS_P1;SDS_P2;PMS_P1;PMS_P2;Temp;Humidity;BMP_temperature;BMP_pressure;BME280_temperature;BME280_humidity;BME280_pressure;Samples;Min_cycle;Max_cycle;Signal;HPM_P1;HPM_P2
2024/01/30 00:01:56;;;;;;;25.33;22.63;;;5.90;99.90;;;;;;5073697;28;20419;-60
2024/01/30 00:04:22;;;;;;;26.50;22.90;;;5.90;99.90;;;;;;5073722;28;20403;-61
2024/01/30 00:06:47;;;;;;;26.02;23.33;;;5.90;99.90;;;;;;5070062;28;21115;-60
2024/01/30 00:09:13;;;;;;;25.02;22.42;;;5.90;99.90;;;;;;5070694;28;20448;-60
2024/01/30 00:11:40;;;;;;;25.47;22.77;;;5.90;99.90;;;;;;5071931;28;20890;-60
2024/01/30 00:14:05;;;;;;;26.30;22.30;;;5.90;99.90;;;;;;5077948;28;20402;-60
2024/01/30 00:16:31;;;;;;;25.17;22.40;;;5.90;99.90;;;;;;5075688;28;20420;-61
2024/01/30 00:18:57;;;;;;;25.30;22.45;;;5.90;99.90;;;;;;5070283;28;20429;-60
2024/01/30 00:21:23;;;;;;;25.00;22.00;;;5.90;99.90;;;;;;5066650;28;20439;-60
2024/01/30 00:23:49;;;;;;;24.40;21.83;;;5.90;99.90;;;;;;5034310;28;20405;-60
2024/01/30 00:26:15;;;;;;;23.90;21.35;;;5.90;99.90;;;;;;5074892;28;20396;-60
2024/01/30 00:28:44;;;;;;;23.45;21.02;;;5.90;99.90;;;;;;5075830;28;20407;-60
2024/01/30 00:31:12;;;;;;;25.13;21.90;;;5.90;99.90;;;;;;5068916;28;20762;-61
2024/01/30 00:33:39;;;;;;;25.52;21.52;;;5.90;99.90;;;;;;5069613;28;20398;-61
2024/01/30 00:36:09;;;;;;;24.50;21.85;;;5.90;99.90;;;;;;5065433;28;20424;-60
2024/01/30 00:38:35;;;;;;;22.52;20.13;;;6.00;99.90;;;;;;5068867;28;20403;-61
2024/01/30 00:41:04;;;;;;;22.95;19.95;;;6.00;99.90;;;;;;5070166;28;20407;-60
2024/01/30 00:43:31;;;;;;;22.20;19.98;;;6.00;99.90;;;;;;5073812;28;20548;-60
2024/01/30 00:45:57;;;;;;;22.47;20.10;;;6.00;99.90;;;;;;5074528;28;20404;-60
2024/01/30 00:48:23;;;;;;;24.15;20.50;;;6.10;99.90;;;;;;5073397;28;20811;-60
2024/01/30 00:50:49;;;;;;;22.67;20.15;;;6.10;99.90;;;;;;5072593;28;20393;-61
2024/01/30 00:53:15;;;;;;;23.38;20.42;;;6.20;99.90;;;;;;5072160;28;20871;-60
2024/01/30 00:55:41;;;;;;;23.33;20.83;;;6.10;99.90;;;;;;5073065;28;20752;-60
2024/01/30 00:58:06;;;;;;;23.70;21.20;;;6.20;99.90;;;;;;5069485;28;20803;-60
2024/01/30 01:00:32;;;;;;;24.27;21.58;;;6.10;99.90;;;;;;5071210;28;20388;-60
2024/01/30 01:03:01;;;;;;;26.15;22.52;;;6.10;99.90;;;;;;5052732;28;20423;-61
2024/01/30 01:05:27;;;;;;;26.95;21.92;;;6.00;99.90;;;;;;5071201;28;20426;-60
2024/01/30 01:07:53;;;;;;;25.73;22.93;;;5.90;99.90;;;;;;5071589;28;20399;-60
2024/01/30 01:10:19;;;;;;;25.57;22.87;;;5.80;99.90;;;;;;5063958;28;20733;-60
2024/01/30 01:12:45;;;;;;;28.48;24.38;;;5.70;99.90;;;;;;5076031;28;20908;-60
2024/01/30 01:15:11;;;;;;;25.65;22.85;;;5.60;99.90;;;;;;5070624;28;20423;-60
2024/01/30 01:17:38;;;;;;;25.27;21.50;;;5.60;99.90;;;;;;5071008;28;20957;-60
2024/01/30 01:20:06;;;;;;;26.67;23.63;;;5.50;99.90;;;;;;5072511;28;20412;-60
2024/01/30 01:22:32;;;;;;;26.73;23.90;;;5.50;99.90;;;;;;5071391;28;20486;-60
2024/01/30 01:24:58;;;;;;;29.27;24.17;;;5.40;99.90;;;;;;5072374;28;20407;-60
2024/01/30 01:27:25;;;;;;;28.73;24.45;;;5.30;99.90;;;;;;5053294;28;20813;-60
2024/01/30 01:29:51;;;;;;;28.55;25.35;;;5.30;99.90;;;;;;5073719;28;20422;-60
2024/01/30 01:32:17;;;;;;;27.40;24.42;;;5.20;99.90;;;;;;5053182;28;20396;-61
2024/01/30 01:34:42;;;;;;;27.05;24.15;;;5.10;99.90;;;;;;5070887;28;20392;-60
2024/01/30 01:37:08;;;;;;;30.80;26.40;;;5.10;99.90;;;;;;5071001;28;20427;-60
2024/01/30 01:39:34;;;;;;;29.60;25.57;;;5.00;99.90;;;;;;5070811;28;20398;-60
2024/01/30 01:42:00;;;;;;;29.35;25.40;;;5.00;99.90;;;;;;5068843;28;20419;-60
2024/01/30 01:44:26;;;;;;;27.67;24.70;;;5.00;99.90;;;;;;5070337;28;20450;-60
2024/01/30 01:46:53;;;;;;;28.58;25.45;;;4.90;99.90;;;;;;5070907;28;20402;-60
2024/01/30 01:49:20;;;;;;;30.17;24.92;;;4.90;99.90;;;;;;5069091;28;20426;-60
2024/01/30 01:51:48;;;;;;;27.38;23.63;;;4.90;99.90;;;;;;5069355;28;20426;-60
2024/01/30 01:54:15;;;;;;;26.45;23.65;;;5.00;99.90;;;;;;5070824;28;20403;-61
2024/01/30 01:56:43;;;;;;;25.48;22.77;;;4.90;99.90;;;;;;5069735;28;20424;-60
2024/01/30 01:59:09;;;;;;;27.02;23.30;;;5.00;99.90;;;;;;5068823;28;20438;-61
2024/01/30 02:01:40;;;;;;;27.42;23.48;;;5.00;99.90;;;;;;5072424;28;20477;-60
2024/01/30 02:04:07;;;;;;;25.92;22.88;;;5.00;99.90;;;;;;5078469;28;20881;-60
2024/01/30 02:06:36;;;;;;;27.60;22.47;;;5.00;99.90;;;;;;5053305;28;20918;-60
2024/01/30 02:09:04;;;;;;;24.20;21.70;;;5.10;99.90;;;;;;5070280;28;20412;-60
2024/01/30 02:11:30;;;;;;;25.05;22.45;;;5.10;99.90;;;;;;5069034;28;20411;-60
2024/01/30 02:13:56;;;;;;;23.90;21.40;;;5.20;99.90;;;;;;5070963;28;20486;-60
2024/01/30 02:16:21;;;;;;;23.88;20.83;;;5.30;99.90;;;;;;5077453;28;20422;-61
2024/01/30 02:18:47;;;;;;;23.80;20.77;;;5.40;99.90;;;;;;5072963;28;20457;-60
2024/01/30 02:21:17;;;;;;;22.63;20.33;;;5.50;99.90;;;;;;5081444;28;20432;-60
2024/01/30 02:23:44;;;;;;;23.70;20.43;;;5.60;99.90;;;;;;5069181;28;20395;-60
2024/01/30 02:26:11;;;;;;;22.88;20.27;;;5.70;99.90;;;;;;5076651;28;20402;-60
2024/01/30 02:28:37;;;;;;;23.55;20.83;;;5.70;99.90;;;;;;5071480;28;20470;-60
2024/01/30 02:31:04;;;;;;;22.77;20.48;;;5.70;99.90;;;;;;5067590;28;20828;-60
2024/01/30 02:33:29;;;;;;;22.33;19.92;;;5.70;99.90;;;;;;5069481;28;20419;-60
2024/01/30 02:35:55;;;;;;;21.70;19.40;;;5.80;99.90;;;;;;5066653;28;20935;-60
2024/01/30 02:38:21;;;;;;;24.27;20.05;;;5.90;99.90;;;;;;5070845;28;20404;-60
2024/01/30 02:40:46;;;;;;;21.47;19.03;;;5.80;99.90;;;;;;5074406;28;20395;-60
2024/01/30 02:43:12;;;;;;;21.07;18.90;;;5.90;99.90;;;;;;5070634;28;20423;-60
2024/01/30 02:45:38;;;;;;;20.40;18.05;;;5.90;99.90;;;;;;5071008;28;20915;-60
2024/01/30 02:48:04;;;;;;;20.47;18.07;;;5.90;99.90;;;;;;5071271;28;20509;-60
2024/01/30 02:50:29;;;;;;;20.65;18.42;;;6.00;99.90;;;;;;5073342;28;20489;-60
2024/01/30 02:52:55;;;;;;;20.25;17.83;;;6.10;99.90;;;;;;5069794;28;20403;-60
2024/01/30 02:55:21;;;;;;;22.60;18.03;;;6.00;99.90;;;;;;5072510;28;20490;-60
2024/01/30 02:57:46;;;;;;;20.70;17.90;;;6.00;99.90;;;;;;5076711;28;20430;-60
2024/01/30 03:00:13;;;;;;;21.27;18.98;;;6.00;99.90;;;;;;5070779;28;20907;-61
2024/01/30 03:02:39;;;;;;;20.58;18.48;;;6.10;99.90;;;;;;5074310;28;20428;-60
2024/01/30 03:05:06;;;;;;;21.15;18.13;;;6.10;99.90;;;;;;5071964;28;20412;-60
2024/01/30 03:07:33;;;;;;;21.85;18.92;;;6.10;99.90;;;;;;5074749;28;20402;-60
2024/01/30 03:09:58;;;;;;;24.05;19.33;;;6.10;99.90;;;;;;5054296;28;20448;-60
2024/01/30 03:12:24;;;;;;;20.88;18.67;;;6.00;99.90;;;;;;5071378;28;20885;-60
2024/01/30 03:14:50;;;;;;;20.53;18.37;;;6.00;99.90;;;;;;5077346;28;20934;-60
2024/01/30 03:17:15;;;;;;;21.60;18.85;;;6.00;99.90;;;;;;5072958;28;20396;-60
2024/01/30 03:19:41;;;;;;;20.83;18.60;;;6.00;99.90;;;;;;5071928;28;20453;-60
2024/01/30 03:22:07;;;;;;;22.20;18.37;;;6.00;99.90;;;;;;5077959;28;20394;-60
2024/01/30 03:24:33;;;;;;;20.70;18.58;;;6.00;99.90;;;;;;5069237;28;20403;-60
2024/01/30 03:26:59;;;;;;;22.25;19.38;;;6.10;99.90;;;;;;5068393;28;20408;-60
2024/01/30 03:29:24;;;;;;;24.38;19.48;;;6.10;99.90;;;;;;5068793;28;21592;-60
2024/01/30 03:31:50;;;;;;;21.23;18.30;;;6.10;99.90;;;;;;5069194;28;20408;-60
2024/01/30 03:34:16;;;;;;;20.27;17.90;;;6.10;99.90;;;;;;5050784;28;20912;-61
2024/01/30 03:36:42;;;;;;;20.08;17.50;;;6.10;99.90;;;;;;5071758;28;20410;-60
2024/01/30 03:39:07;;;;;;;20.35;18.27;;;6.10;99.90;;;;;;5070927;28;20407;-60
2024/01/30 03:41:33;;;;;;;19.80;17.70;;;6.10;99.90;;;;;;5074059;28;20424;-60
2024/01/30 03:43:59;;;;;;;20.52;18.00;;;6.10;99.90;;;;;;5075053;28;20392;-60
2024/01/30 03:46:25;;;;;;;20.77;18.58;;;6.20;99.90;;;;;;5071148;28;20510;-60
2024/01/30 03:48:51;;;;;;;19.92;17.83;;;6.20;99.90;;;;;;5073824;28;20845;-60
2024/01/30 03:51:16;;;;;;;23.40;18.77;;;6.20;99.90;;;;;;5074281;28;20940;-60
2024/01/30 03:53:43;;;;;;;20.33;17.70;;;6.20;99.90;;;;;;5076027;28;20478;-60
2024/01/30 03:56:09;;;;;;;21.40;18.15;;;6.20;99.90;;;;;;5070215;28;20439;-60
2024/01/30 03:58:35;;;;;;;21.98;18.60;;;6.30;99.90;;;;;;5073982;28;20398;-60
2024/01/30 04:01:01;;;;;;;20.67;18.48;;;6.30;99.90;;;;;;5072056;28;20455;-60
2024/01/30 04:03:27;;;;;;;20.60;18.25;;;6.30;99.90;;;;;;5070254;28;20406;-60
2024/01/30 04:05:53;;;;;;;21.37;18.57;;;6.30;99.90;;;;;;5069477;28;20422;-60
2024/01/30 04:08:19;;;;;;;19.90;17.80;;;6.40;99.90;;;;;;5081662;28;20402;-61
2024/01/30 04:10:44;;;;;;;20.17;18.13;;;6.40;99.90;;;;;;5075714;28;20493;-60
2024/01/30 04:13:10;;;;;;;21.13;18.50;;;6.40;99.90;;;;;;5070454;28;20450;-60
2024/01/30 04:15:36;;;;;;;21.10;17.63;;;6.40;99.90;;;;;;5071787;28;20769;-60
2024/01/30 04:18:02;;;;;;;21.53;18.47;;;6.50;99.90;;;;;;5077426;28;20391;-60
2024/01/30 04:20:28;;;;;;;20.45;18.38;;;6.50;99.90;;;;;;5069865;28;20890;-60
2024/01/30 04:22:53;;;;;;;20.60;17.60;;;6.50;99.90;;;;;;5049485;28;20967;-60
2024/01/30 04:25:19;;;;;;;20.70;18.50;;;6.60;99.90;;;;;;5073814;28;20412;-60
2024/01/30 04:27:44;;;;;;;22.40;18.20;;;6.60;99.90;;;;;;5074337;28;20894;-60
2024/01/30 04:30:10;;;;;;;19.88;17.70;;;6.60;99.90;;;;;;5073268;28;20411;-60
2024/01/30 04:32:37;;;;;;;20.77;18.33;;;6.60;99.90;;;;;;5067762;28;20409;-60
2024/01/30 04:35:03;;;;;;;21.75;17.92;;;6.60;99.90;;;;;;5073731;28;20423;-60
2024/01/30 04:37:29;;;;;;;20.13;17.98;;;6.60;99.90;;;;;;5037691;28;20487;-60
2024/01/30 04:39:54;;;;;;;19.92;17.85;;;6.60;99.90;;;;;;5081792;28;20471;-60
2024/01/30 04:42:20;;;;;;;21.47;18.20;;;6.60;99.90;;;;;;5073448;28;20921;-60
2024/01/30 04:44:46;;;;;;;20.35;18.00;;;6.60;99.90;;;;;;5079460;28;20490;-60
2024/01/30 04:47:12;;;;;;;21.90;17.88;;;6.60;99.90;;;;;;5076124;28;20479;-60
2024/01/30 04:49:41;;;;;;;19.73;17.60;;;6.70;99.90;;;;;;5076100;28;20398;-60
2024/01/30 04:52:07;;;;;;;20.13;17.60;;;6.70;99.90;;;;;;5074376;28;20485;-60
2024/01/30 04:54:33;;;;;;;19.75;17.25;;;6.70;99.90;;;;;;5059216;28;20414;-60
2024/01/30 04:56:59;;;;;;;19.42;17.42;;;6.80;99.90;;;;;;5077511;28;20425;-60
2024/01/30 04:59:25;;;;;;;20.00;16.67;;;6.80;99.90;;;;;;5077514;28;20394;-60
2024/01/30 05:01:50;;;;;;;20.00;16.87;;;6.80;99.90;;;;;;5071657;28;20904;-60
2024/01/30 05:04:16;;;;;;;19.42;16.63;;;6.80;99.90;;;;;;5072369;28;20387;-60
2024/01/30 05:06:43;;;;;;;19.43;17.53;;;6.80;99.90;;;;;;5081296;28;20408;-60
2024/01/30 05:09:09;;;;;;;19.42;17.33;;;6.90;99.90;;;;;;5072586;28;20429;-60
2024/01/30 05:11:41;;;;;;;19.52;17.25;;;6.90;99.90;;;;;;5070029;28;20411;-60
2024/01/30 05:14:08;;;;;;;20.73;17.88;;;6.90;99.90;;;;;;5071017;28;20914;-60
2024/01/30 05:16:34;;;;;;;19.33;17.10;;;6.90;99.90;;;;;;5073350;28;20425;-60
2024/01/30 05:19:00;;;;;;;19.60;17.50;;;6.90;99.90;;;;;;5073333;28;20392;-60
2024/01/30 05:21:25;;;;;;;19.90;17.65;;;6.90;99.90;;;;;;5068259;28;20787;-60
2024/01/30 05:23:51;;;;;;;19.77;17.45;;;6.90;99.90;;;;;;5075415;28;20398;-60
2024/01/30 05:26:17;;;;;;;20.20;18.03;;;6.90;99.90;;;;;;5078098;28;20404;-60
2024/01/30 05:28:46;;;;;;;21.45;18.08;;;6.90;99.90;;;;;;5109735;27;20468;-61
2024/01/30 05:31:12;;;;;;;19.60;17.60;;;6.80;99.90;;;;;;5071890;28;20410;-60
2024/01/30 05:33:37;;;;;;;20.37;18.13;;;6.80;99.90;;;;;;5081026;28;20397;-60
2024/01/30 05:36:03;;;;;;;22.93;18.50;;;6.80;99.90;;;;;;5069114;28;20494;-60
2024/01/30 05:38:30;;;;;;;21.02;18.70;;;6.80;99.90;;;;;;5068199;28;20427;-60
2024/01/30 05:40:57;;;;;;;21.52;19.15;;;6.80;99.90;;;;;;5065969;28;20498;-61
2024/01/30 05:43:23;;;;;;;19.92;17.92;;;6.80;99.90;;;;;;5070565;28;20399;-60
2024/01/30 05:45:49;;;;;;;21.02;18.08;;;6.80;99.90;;;;;;5080083;28;20481;-60
2024/01/30 05:48:15;;;;;;;20.83;18.20;;;6.90;99.90;;;;;;5078735;28;20391;-61
2024/01/30 05:50:40;;;;;;;22.00;17.70;;;6.80;99.90;;;;;;5072769;28;21117;-60
2024/01/30 05:53:06;;;;;;;20.08;17.85;;;6.80;99.90;;;;;;5073836;28;20465;-60
2024/01/30 05:55:32;;;;;;;19.80;17.47;;;6.90;99.90;;;;;;5077407;28;20427;-60
2024/01/30 05:57:57;;;;;;;20.83;18.15;;;6.90;99.90;;;;;;5070619;28;20408;-60
2024/01/30 06:00:23;;;;;;;20.75;18.48;;;6.90;99.90;;;;;;5074691;28;20414;-60
2024/01/30 06:02:49;;;;;;;21.03;17.77;;;6.90;99.90;;;;;;5075407;28;20434;-60
2024/01/30 06:05:14;;;;;;;20.73;18.38;;;6.90;99.90;;;;;;5071314;28;20436;-60
2024/01/30 06:07:40;;;;;;;20.23;18.10;;;7.00;99.90;;;;;;5069472;28;20433;-60
2024/01/30 06:10:06;;;;;;;18.87;16.97;;;7.00;99.90;;;;;;5070389;28;20415;-60
2024/01/30 06:12:32;;;;;;;18.58;16.52;;;7.10;99.90;;;;;;5070753;28;20396;-60
2024/01/30 06:14:58;;;;;;;20.47;16.23;;;7.10;99.90;;;;;;5072359;28;20799;-60
2024/01/30 06:17:24;;;;;;;18.77;15.95;;;7.20;99.90;;;;;;5073636;28;20474;-60
2024/01/30 06:19:50;;;;;;;17.42;15.60;;;7.30;99.90;;;;;;5056791;28;20450;-60
2024/01/30 06:22:16;;;;;;;18.00;15.95;;;7.30;99.90;;;;;;5073179;28;20900;-60
2024/01/30 06:24:44;;;;;;;17.27;15.48;;;7.40;99.90;;;;;;5071652;28;20456;-61
2024/01/30 06:27:10;;;;;;;17.45;15.45;;;7.40;99.90;;;;;;5073605;28;20444;-60
2024/01/30 06:29:36;;;;;;;17.33;15.52;;;7.50;99.90;;;;;;5078892;28;20515;-60
2024/01/30 06:32:02;;;;;;;17.55;15.10;;;7.50;99.90;;;;;;5068840;28;20498;-60
2024/01/30 06:34:28;;;;;;;17.25;15.43;;;7.60;99.90;;;;;;5077004;28;20390;-60
2024/01/30 06:36:53;;;;;;;17.17;14.73;;;7.70;99.90;;;;;;5069714;28;20554;-61
2024/01/30 06:39:19;;;;;;;16.90;14.80;;;7.70;99.90;;;;;;5068563;28;20400;-60
2024/01/30 06:41:46;;;;;;;16.97;15.07;;;7.80;99.90;;;;;;5070163;28;20398;-60
2024/01/30 06:44:12;;;;;;;17.03;14.60;;;7.70;99.90;;;;;;5070007;28;20402;-61
2024/01/30 06:46:38;;;;;;;17.55;14.30;;;7.80;99.90;;;;;;5075236;28;20485;-60
2024/01/30 06:49:04;;;;;;;16.80;14.97;;;7.80;99.90;;;;;;5073899;28;20395;-60
2024/01/30 06:51:30;;;;;;;16.65;14.00;;;7.80;99.90;;;;;;5075695;28;20833;-60
2024/01/30 06:53:56;;;;;;;15.95;14.20;;;7.90;99.90;;;;;;5074043;28;20390;-60
2024/01/30 06:56:22;;;;;;;17.27;14.37;;;7.90;99.90;;;;;;5068616;28;20431;-60
2024/01/30 06:58:48;;;;;;;17.02;14.07;;;8.00;99.90;;;;;;5070038;28;20402;-60
2024/01/30 07:01:15;;;;;;;18.35;14.48;;;8.00;99.90;;;;;;5070350;28;20416;-60
2024/01/30 07:03:41;;;;;;;16.30;14.57;;;8.00;99.90;;;;;;5052927;28;20481;-60
2024/01/30 07:06:07;;;;;;;16.23;14.63;;;8.00;99.90;;;;;;5071876;28;20890;-60
2024/01/30 07:08:33;;;;;;;16.65;14.52;;;8.00;99.90;;;;;;5060808;28;20434;-61
2024/01/30 07:10:59;;;;;;;16.60;14.88;;;8.00;99.90;;;;;;5063041;28;20928;-60
2024/01/30 07:13:25;;;;;;;16.97;15.13;;;8.10;99.90;;;;;;5059685;28;20417;-60
2024/01/30 07:15:50;;;;;;;17.02;15.30;;;8.10;99.90;;;;;;5065873;28;20466;-60
2024/01/30 07:18:16;;;;;;;17.73;15.27;;;8.00;99.90;;;;;;5068376;28;20410;-60
2024/01/30 07:20:49;;;;;;;18.43;15.63;;;8.00;99.90;;;;;;5072136;28;20520;-61
2024/01/30 07:23:17;;;;;;;16.67;14.38;;;8.00;99.90;;;;;;5064662;28;20425;-61
2024/01/30 07:25:44;;;;;;;16.15;14.55;;;8.00;99.90;;;;;;5068532;28;20473;-61
2024/01/30 07:28:11;;;;;;;17.57;15.67;;;8.00;99.90;;;;;;5065526;28;20421;-60
2024/01/30 07:30:37;;;;;;;16.70;14.98;;;8.00;99.90;;;;;;5070106;28;20453;-60
2024/01/30 07:33:02;;;;;;;16.38;14.68;;;8.00;99.90;;;;;;5066854;28;21543;-60
2024/01/30 07:35:28;;;;;;;17.33;15.20;;;8.00;99.90;;;;;;5065587;28;20464;-60
2024/01/30 07:37:54;;;;;;;15.48;13.98;;;8.10;99.90;;;;;;5071108;28;20902;-60
2024/01/30 07:40:20;;;;;;;16.40;14.55;;;8.10;99.90;;;;;;5065331;28;20483;-60
2024/01/30 07:42:45;;;;;;;18.43;14.67;;;8.20;99.90;;;;;;5051360;28;20459;-60
2024/01/30 07:45:11;;;;;;;15.73;14.00;;;8.20;99.90;;;;;;5071397;28;20404;-60
2024/01/30 07:47:37;;;;;;;15.88;14.18;;;8.20;99.90;;;;;;5069472;28;20434;-61
2024/01/30 07:50:03;;;;;;;15.83;14.10;;;8.30;99.90;;;;;;5061381;28;20417;-60
2024/01/30 07:52:29;;;;;;;15.70;13.95;;;8.30;99.90;;;;;;5056077;28;20415;-60
2024/01/30 07:54:55;;;;;;;15.75;13.82;;;8.30;99.90;;;;;;5067420;28;20452;-60
2024/01/30 07:57:21;;;;;;;15.52;13.02;;;8.30;99.90;;;;;;5052656;28;20441;-60
2024/01/30 07:59:46;;;;;;;18.15;13.85;;;8.30;99.90;;;;;;5067360;28;20496;-60
2024/01/30 08:02:13;;;;;;;15.80;13.47;;;8.30;99.90;;;;;;5044389;28;20426;-60
2024/01/30 08:04:38;;;;;;;16.45;13.27;;;8.30;99.90;;;;;;5061027;28;20775;-60
2024/01/30 08:07:04;;;;;;;15.03;13.23;;;8.40;99.90;;;;;;5050005;28;20417;-60
2024/01/30 08:09:30;;;;;;;15.93;14.27;;;8.40;99.90;;;;;;5051162;28;20523;-60
2024/01/30 08:11:56;;;;;;;17.70;14.30;;;8.40;99.90;;;;;;5071309;28;21160;-60
2024/01/30 08:14:22;;;;;;;15.27;13.60;;;8.40;99.90;;;;;;5069047;28;20724;-60
2024/01/30 08:16:47;;;;;;;16.17;13.25;;;8.40;99.90;;;;;;5065178;28;20433;-60
2024/01/30 08:19:14;;;;;;;16.00;14.30;;;8.40;99.90;;;;;;5072395;28;20401;-60
2024/01/30 08:21:40;;;;;;;15.82;13.43;;;8.40;99.90;;;;;;5071488;28;20895;-60
2024/01/30 08:24:07;;;;;;;15.23;13.60;;;8.40;99.90;;;;;;5073217;28;20458;-60
2024/01/30 08:26:33;;;;;;;16.05;13.32;;;8.40;99.90;;;;;;5055640;28;20564;-60
2024/01/30 08:28:59;;;;;;;16.05;13.55;;;8.40;99.90;;;;;;5071969;28;20490;-60
2024/01/30 08:31:25;;;;;;;15.52;13.38;;;8.50;99.90;;;;;;5068305;28;20473;-60
2024/01/30 08:33:51;;;;;;;15.90;12.85;;;8.50;99.90;;;;;;5071035;28;22340;-60
2024/01/30 08:36:17;;;;;;;15.55;13.25;;;8.50;99.90;;;;;;5068826;28;20784;-60
2024/01/30 08:38:43;;;;;;;14.65;12.40;;;8.50;99.90;;;;;;5051671;28;20484;-60
2024/01/30 08:41:09;;;;;;;15.75;13.13;;;8.50;99.90;;;;;;5067117;28;20922;-61
2024/01/30 08:43:34;;;;;;;17.17;13.30;;;8.60;99.90;;;;;;5069285;28;20414;-60
2024/01/30 08:46:00;;;;;;;14.35;12.82;;;8.60;99.90;;;;;;5070506;28;20408;-60
2024/01/30 08:48:27;;;;;;;14.38;12.88;;;8.70;99.90;;;;;;5047362;28;20403;-61
2024/01/30 08:50:52;;;;;;;15.95;13.13;;;8.70;99.90;;;;;;5072189;28;20486;-60
2024/01/30 08:53:18;;;;;;;15.38;12.60;;;8.70;99.90;;;;;;5072460;28;20487;-61
2024/01/30 08:55:44;;;;;;;14.80;12.40;;;8.70;99.90;;;;;;5068321;28;20441;-61
2024/01/30 08:58:10;;;;;;;14.40;12.35;;;8.80;99.90;;;;;;5071377;28;20513;-60
2024/01/30 09:00:36;;;;;;;15.15;12.38;;;8.90;99.90;;;;;;5070225;28;20450;-60
2024/01/30 09:03:03;;;;;;;14.18;12.13;;;8.90;99.90;;;;;;5069553;28;20419;-61
2024/01/30 09:05:29;;;;;;;14.65;12.13;;;9.00;99.90;;;;;;5072331;28;20411;-60
2024/01/30 09:07:54;;;;;;;13.00;11.67;;;9.00;99.90;;;;;;5072039;28;20400;-61
2024/01/30 09:10:20;;;;;;;14.98;11.40;;;9.00;99.90;;;;;;5071622;28;20422;-61
2024/01/30 09:12:46;;;;;;;17.00;12.40;;;9.10;99.90;;;;;;5070925;28;20943;-61
2024/01/30 09:15:12;;;;;;;14.00;12.15;;;9.10;99.90;;;;;;5071010;28;20431;-61
2024/01/30 09:17:38;;;;;;;14.60;11.85;;;9.20;99.90;;;;;;5070927;28;20418;-61
2024/01/30 09:20:04;;;;;;;14.93;11.97;;;9.30;99.90;;;;;;5070048;28;20451;-61
2024/01/30 09:22:31;;;;;;;11.80;10.50;;;9.30;99.90;;;;;;5069641;28;20465;-61
2024/01/30 09:24:57;;;;;;;12.95;11.27;;;9.30;99.90;;;;;;5069975;28;20884;-60
2024/01/30 09:27:23;;;;;;;14.95;11.48;;;9.40;99.90;;;;;;5070256;28;20408;-60
2024/01/30 09:29:48;;;;;;;13.30;11.20;;;9.40;99.90;;;;;;5067387;28;20425;-60
2024/01/30 09:32:14;;;;;;;13.27;11.45;;;9.40;99.90;;;;;;5071447;28;20479;-60
2024/01/30 09:34:40;;;;;;;13.88;11.95;;;9.40;99.90;;;;;;5071471;28;20450;-60
2024/01/30 09:37:05;;;;;;;15.50;11.57;;;9.40;99.90;;;;;;5070061;28;20416;-60
2024/01/30 09:39:31;;;;;;;13.70;11.18;;;9.50;99.90;;;;;;5070295;28;20838;-60
2024/01/30 09:42:27;;;;;;;13.93;11.57;;;9.50;99.90;;;;;;5069914;28;20450;-60
2024/01/30 09:44:53;;;;;;;13.35;11.85;;;9.50;99.90;;;;;;5070025;28;20536;-60
2024/01/30 09:47:19;;;;;;;14.63;11.18;;;9.60;99.90;;;;;;5070410;28;20475;-60
2024/01/30 09:49:45;;;;;;;13.48;11.65;;;9.60;99.90;;;;;;5071403;28;20402;-61
2024/01/30 09:52:11;;;;;;;15.18;11.63;;;9.60;99.90;;;;;;5066272;28;20414;-61
2024/01/30 09:54:38;;;;;;;13.25;11.82;;;9.70;99.90;;;;;;5061810;28;20417;-60
2024/01/30 09:57:04;;;;;;;12.97;11.50;;;9.70;99.90;;;;;;5065518;28;20420;-60
2024/01/30 09:59:31;;;;;;;15.05;12.00;;;9.70;99.90;;;;;;5069782;28;20423;-60
2024/01/30 10:01:57;;;;;;;13.18;11.73;;;9.60;99.90;;;;;;5070807;28;20478;-60
2024/01/30 10:04:23;;;;;;;13.20;11.63;;;9.60;99.90;;;;;;5069902;28;20414;-61
2024/01/30 10:06:50;;;;;;;13.35;11.95;;;9.60;99.90;;;;;;5069632;28;20881;-61
2024/01/30 10:09:16;;;;;;;13.43;11.20;;;9.60;99.90;;;;;;5070749;28;20400;-60
2024/01/30 10:11:42;;;;;;;12.45;10.98;;;9.60;99.90;;;;;;5069302;28;20777;-60
2024/01/30 10:14:08;;;;;;;14.15;11.40;;;9.60;99.90;;;;;;5071048;28;20396;-61
2024/01/30 10:16:34;;;;;;;15.83;11.73;;;9.60;99.90;;;;;;5070807;28;20415;-60
2024/01/30 10:19:00;;;;;;;15.13;11.63;;;9.70;99.90;;;;;;5068858;28;20412;-61
2024/01/30 10:21:27;;;;;;;13.88;11.32;;;9.80;99.90;;;;;;5066653;28;20428;-61
2024/01/30 10:23:53;;;;;;;15.90;11.57;;;9.80;99.90;;;;;;5067058;28;20960;-60
2024/01/30 10:26:18;;;;;;;14.80;11.68;;;9.80;99.90;;;;;;5070145;28;20491;-61
2024/01/30 10:28:44;;;;;;;13.10;11.70;;;9.90;99.90;;;;;;5067921;28;20785;-61
2024/01/30 10:31:10;;;;;;;15.87;11.10;;;9.90;99.90;;;;;;5069174;28;20468;-61
2024/01/30 10:33:36;;;;;;;15.07;11.35;;;10.00;99.90;;;;;;5068647;28;20403;-61
2024/01/30 10:36:04;;;;;;;13.73;11.50;;;10.00;99.90;;;;;;5069523;28;20415;-61
2024/01/30 10:38:31;;;;;;;14.85;11.80;;;10.00;99.90;;;;;;5068759;28;20506;-61
2024/01/30 10:40:57;;;;;;;14.02;12.13;;;10.10;99.90;;;;;;5067756;28;20419;-60
2024/01/30 10:43:44;;;;;;;15.18;11.98;;;10.20;99.90;;;;;;5050810;28;20708;-61
2024/01/30 10:46:14;;;;;;;15.97;12.30;;;10.20;99.90;;;;;;5061278;28;20658;-61
2024/01/30 10:48:46;;;;;;;15.25;11.40;;;10.30;99.90;;;;;;5067381;28;20457;-61
2024/01/30 10:51:14;;;;;;;13.52;11.55;;;10.30;99.90;;;;;;5067617;28;20423;-61
2024/01/30 10:53:40;;;;;;;14.83;11.60;;;10.40;99.90;;;;;;5068339;28;20416;-60
2024/01/30 10:56:08;;;;;;;15.18;11.70;;;10.30;99.90;;;;;;5068784;28;20419;-61
2024/01/30 10:58:33;;;;;;;16.95;11.95;;;10.30;99.90;;;;;;5068577;28;20474;-61
2024/01/30 11:01:00;;;;;;;14.73;11.95;;;10.30;99.90;;;;;;5070725;28;20411;-61
2024/01/30 11:03:26;;;;;;;13.98;11.07;;;10.40;99.90;;;;;;5068861;28;20442;-61
2024/01/30 11:05:52;;;;;;;14.23;11.88;;;10.40;99.90;;;;;;5069751;28;20479;-61
2024/01/30 11:08:25;;;;;;;14.60;11.73;;;10.30;99.90;;;;;;5069862;28;20400;-61
2024/01/30 11:10:58;;;;;;;14.45;11.45;;;10.30;99.90;;;;;;5068218;28;20424;-61
2024/01/30 11:13:30;;;;;;;15.00;11.90;;;10.40;99.90;;;;;;5066204;28;20420;-61
2024/01/30 11:16:06;;;;;;;14.25;11.73;;;10.40;99.90;;;;;;5068197;28;20446;-61
2024/01/30 11:18:36;;;;;;;16.27;11.93;;;10.50;99.90;;;;;;5067365;28;20901;-61
2024/01/30 11:21:04;;;;;;;15.70;11.40;;;10.50;99.90;;;;;;5051815;28;20772;-61
2024/01/30 11:23:32;;;;;;;14.45;12.00;;;10.50;99.90;;;;;;5066151;28;20900;-60
2024/01/30 11:25:58;;;;;;;13.52;11.38;;;10.50;99.90;;;;;;5066926;28;20437;-60
2024/01/30 11:28:24;;;;;;;15.37;12.57;;;10.50;99.90;;;;;;5069466;28;20429;-61
2024/01/30 11:30:53;;;;;;;16.05;12.27;;;10.50;99.90;;;;;;5068015;28;20399;-61
2024/01/30 11:33:32;;;;;;;14.70;11.55;;;10.50;99.90;;;;;;5069782;28;20395;-61
2024/01/30 11:36:02;;;;;;;15.40;11.75;;;10.70;99.90;;;;;;5069055;28;20425;-61
2024/01/30 11:38:28;;;;;;;15.45;11.77;;;10.70;99.90;;;;;;5067228;28;20403;-61
2024/01/30 11:40:57;;;;;;;15.60;11.50;;;10.60;99.90;;;;;;5068508;28;20407;-61
2024/01/30 11:43:23;;;;;;;16.95;12.45;;;10.60;99.90;;;;;;5066257;28;20415;-60
2024/01/30 11:45:49;;;;;;;16.05;11.80;;;10.60;99.90;;;;;;5068956;28;20431;-61
2024/01/30 11:48:15;;;;;;;16.40;12.27;;;10.60;99.90;;;;;;5060862;28;20415;-60
2024/01/30 11:50:41;;;;;;;15.32;12.10;;;10.60;99.90;;;;;;5065706;28;20430;-60
2024/01/30 11:53:07;;;;;;;15.67;12.27;;;10.60;99.90;;;;;;5066956;28;20489;-60
2024/01/30 11:55:35;;;;;;;14.65;11.98;;;10.60;99.90;;;;;;5068830;28;20431;-61
2024/01/30 11:58:02;;;;;;;15.43;11.80;;;10.70;99.90;;;;;;5050831;28;20961;-61
2024/01/30 12:00:27;;;;;;;17.70;12.27;;;10.60;99.90;;;;;;5067575;28;20422;-61
2024/01/30 12:02:55;;;;;;;16.27;12.00;;;10.70;99.90;;;;;;5067732;28;20399;-61
2024/01/30 12:05:28;;;;;;;17.45;12.50;;;10.60;99.90;;;;;;5067565;28;20435;-60
2024/01/30 12:07:54;;;;;;;15.50;12.55;;;10.70;99.90;;;;;;5069061;28;20447;-61
2024/01/30 12:10:21;;;;;;;16.80;12.60;;;10.60;99.90;;;;;;5068565;28;20451;-61
2024/01/30 12:12:49;;;;;;;14.98;12.15;;;10.70;99.90;;;;;;5066202;28;20940;-61
2024/01/30 12:15:16;;;;;;;16.30;12.65;;;10.70;99.90;;;;;;5068735;28;20468;-61
2024/01/30 12:17:42;;;;;;;15.93;12.73;;;10.80;99.90;;;;;;5066776;28;20403;-60
2024/01/30 12:20:08;;;;;;;15.20;12.50;;;10.70;99.90;;;;;;5047811;28;20412;-61
2024/01/30 12:22:52;;;;;;;15.98;11.82;;;10.70;99.90;;;;;;5069125;28;20411;-61
2024/01/30 12:25:20;;;;;;;14.17;11.90;;;10.80;99.90;;;;;;5050915;28;20400;-61
2024/01/30 12:27:51;;;;;;;17.35;12.88;;;10.80;99.90;;;;;;5067019;28;20419;-61
2024/01/30 12:30:20;;;;;;;16.20;12.27;;;10.80;99.90;;;;;;5047153;28;20448;-62
2024/01/30 12:32:47;;;;;;;17.95;12.88;;;10.90;99.90;;;;;;5068173;28;20396;-61